Weather at Hartsfield Jackson Atlanta International Airport

Public forecast

Using degrees Fahrenheit for public forecast. Weather courtesy of forecast.io.

Current aviation weather report (METAR) for Hartsfield Jackson Atlanta International Airport

Retrieved 2021/04/20 22:52 UTC (9 minutes ago):

KATL 202252Z 19004KT 10SM SCT070 23/06 A2991 RMK AO2 SLP124 T02280061

Aviation forecast (TAF) for Hartsfield Jackson Atlanta International Airport

Retrieved 2021/04/20 18:24 UTC (5 hours ago):

TAF KATL 201722Z 2018/2124 19007KT P6SM SCT050 BKN120 FM202300 23006KT P6SM SCT250 FM210900 27010KT P6SM FEW060 FEW200 FM211100 32010G20KT P6SM FEW040 SCT080 FM211400 33016G28KT P6SM FEW200 FM211800 32020G29KT P6SM SKC